Time;durP1;ratioP1;P1;durP2;ratioP2;P2;SDS_P1;SDS_P2;PMS_P1;PMS_P2;Temp;Humidity;BMP_temperature;BMP_pressure;BME280_temperature;BME280_humidity;BME280_pressure;Samples;Min_cycle;Max_cycle;Signal;HPM_P1;HPM_P2
2023/10/03 00:00:33;;;;;;;16.40;5.68;;;;;;;19.86;60.78;101428.75;5033645;28;20104;-43
2023/10/03 00:03:01;;;;;;;14.02;6.47;;;;;;;19.56;62.57;101432.69;5033612;28;20546;-42
2023/10/03 00:05:31;;;;;;;14.60;6.75;;;;;;;19.17;63.25;101432.69;5033664;28;20060;-43
2023/10/03 00:08:00;;;;;;;16.33;5.70;;;;;;;19.21;63.62;101435.72;5033190;28;20030;-43
2023/10/03 00:10:30;;;;;;;20.70;6.85;;;;;;;19.20;64.08;101436.78;5033070;28;20065;-46
2023/10/03 00:12:56;;;;;;;17.10;7.53;;;;;;;19.04;64.82;101435.72;5032878;28;20505;-43
2023/10/03 00:15:25;;;;;;;19.30;7.18;;;;;;;19.03;65.32;101439.53;5033536;28;20036;-42
2023/10/03 00:17:53;;;;;;;18.58;6.65;;;;;;;19.05;66.00;101439.28;5033028;28;20496;-42
2023/10/03 00:20:22;;;;;;;21.27;6.80;;;;;;;18.75;66.78;101445.03;5015185;28;20033;-42
2023/10/03 00:22:51;;;;;;;17.10;7.50;;;;;;;18.70;67.90;101449.28;5032723;28;20502;-42
2023/10/03 00:25:19;;;;;;;17.65;6.70;;;;;;;18.62;67.29;101457.00;5032845;28;20116;-42
2023/10/03 00:27:51;;;;;;;17.58;6.88;;;;;;;18.44;67.39;101452.63;5032828;28;20021;-42
2023/10/03 00:30:24;;;;;;;16.02;7.00;;;;;;;18.48;68.34;101451.84;5032815;28;20018;-42
2023/10/03 00:32:52;;;;;;;17.92;7.18;;;;;;;18.41;68.84;101453.91;5032621;28;20037;-43
2023/10/03 00:35:22;;;;;;;14.98;6.32;;;;;;;18.44;69.22;101455.31;5032591;28;20033;-44
2023/10/03 00:37:51;;;;;;;17.80;7.80;;;;;;;18.10;69.70;101454.38;5032436;28;20038;-44
2023/10/03 00:42:49;;;;;;;18.92;7.20;;;;;;;17.82;71.43;101453.31;5033832;28;20013;-42
2023/10/03 00:45:21;;;;;;;16.98;7.25;;;;;;;17.79;72.09;101439.41;5036614;28;20025;-43
2023/10/03 00:47:54;;;;;;;19.95;6.80;;;;;;;17.87;72.50;101444.44;5036601;28;20025;-44
2023/10/03 00:50:25;;;;;;;20.15;7.03;;;;;;;17.93;72.74;101448.91;5036572;28;20123;-44
2023/10/03 00:52:58;;;;;;;15.80;6.93;;;;;;;17.66;73.78;101441.31;5036604;28;20021;-46
2023/10/03 00:55:29;;;;;;;16.10;7.38;;;;;;;17.67;73.35;101447.53;5036923;28;20032;-45
2023/10/03 01:00:54;;;;;;;22.98;8.05;;;;;;;17.39;75.37;101445.56;5036446;28;20060;-43
2023/10/03 01:03:36;;;;;;;16.27;7.07;;;;;;;17.30;76.09;101445.09;5036500;28;20105;-46
2023/10/03 01:06:09;;;;;;;21.20;8.43;;;;;;;17.31;76.26;101454.03;5036404;28;20040;-44
2023/10/03 01:08:38;;;;;;;16.65;8.07;;;;;;;17.32;75.63;101448.41;5036273;28;20312;-46
2023/10/03 01:11:15;;;;;;;18.70;7.53;;;;;;;17.21;76.23;101446.50;5036221;28;20026;-44
2023/10/03 01:13:49;;;;;;;18.63;8.57;;;;;;;17.06;77.46;101444.28;5037111;28;20031;-44
2023/10/03 01:16:31;;;;;;;23.45;8.20;;;;;;;17.15;77.65;101453.66;5036351;28;20112;-43
2023/10/03 01:19:20;;;;;;;23.63;8.05;;;;;;;16.97;78.70;101448.38;5036047;28;20026;-45
2023/10/03 01:21:47;;;;;;;16.55;7.13;;;;;;;17.01;78.11;101449.56;5036126;28;20550;-46
2023/10/03 01:24:20;;;;;;;20.00;8.10;;;;;;;16.98;78.12;101441.09;5036048;28;20113;-43
2023/10/03 01:26:52;;;;;;;17.48;7.68;;;;;;;16.96;77.48;101441.31;5036043;28;20692;-44
2023/10/03 01:29:21;;;;;;;22.35;7.85;;;;;;;16.99;77.62;101448.13;5036147;28;20200;-43
2023/10/03 01:31:49;;;;;;;18.95;7.93;;;;;;;16.87;78.02;101450.81;5035709;28;20112;-44
2023/10/03 01:34:16;;;;;;;14.07;7.05;;;;;;;16.95;77.95;101458.59;5035683;28;20034;-45
2023/10/03 01:36:48;;;;;;;22.55;7.25;;;;;;;16.59;79.61;101452.25;5035779;28;20021;-43
2023/10/03 01:39:15;;;;;;;21.17;7.03;;;;;;;16.52;80.12;101461.53;5035569;28;20038;-44
2023/10/03 01:41:42;;;;;;;18.02;7.45;;;;;;;16.51;80.25;101451.78;5035945;28;20028;-45
2023/10/03 01:44:09;;;;;;;17.83;7.55;;;;;;;16.45;80.75;101453.53;5035582;28;20099;-44
2023/10/03 01:46:38;;;;;;;15.35;6.65;;;;;;;16.40;80.83;101439.88;5035654;28;20025;-46
2023/10/03 01:49:05;;;;;;;24.20;8.05;;;;;;;16.40;80.79;101445.28;5017878;28;20430;-44
2023/10/03 01:51:31;;;;;;;20.45;7.60;;;;;;;16.36;81.39;101438.69;5035516;28;20065;-45
2023/10/03 01:53:57;;;;;;;22.00;8.10;;;;;;;16.24;81.99;101435.94;5035013;28;20025;-44
2023/10/03 01:56:25;;;;;;;20.35;8.32;;;;;;;16.15;82.20;101441.88;5035301;28;20022;-44
2023/10/03 01:58:51;;;;;;;16.02;7.03;;;;;;;16.17;81.97;101435.22;5035492;28;20048;-43
2023/10/03 02:01:17;;;;;;;23.52;8.23;;;;;;;16.08;82.82;101441.97;5035361;28;20481;-43
2023/10/03 02:03:45;;;;;;;22.85;7.72;;;;;;;15.92;83.35;101440.72;5035376;28;20381;-43
2023/10/03 02:06:11;;;;;;;23.40;8.38;;;;;;;15.92;83.51;101440.72;5035274;28;20465;-42
2023/10/03 02:08:37;;;;;;;18.63;7.68;;;;;;;15.80;84.17;101437.13;5035244;28;20059;-42
2023/10/03 02:11:05;;;;;;;15.90;7.55;;;;;;;15.76;84.59;101444.84;5035204;28;20033;-42
2023/10/03 02:13:34;;;;;;;17.08;7.05;;;;;;;15.93;84.69;101452.34;5035387;28;20381;-43
2023/10/03 02:16:01;;;;;;;18.25;7.50;;;;;;;15.90;85.10;101447.41;5035103;28;20051;-43
2023/10/03 02:18:27;;;;;;;17.98;7.28;;;;;;;15.86;85.39;101448.91;5035498;28;20033;-42
2023/10/03 02:21:01;;;;;;;18.08;7.13;;;;;;;15.77;85.89;101434.91;5034795;28;20032;-42
2023/10/03 02:23:28;;;;;;;22.00;7.78;;;;;;;15.76;86.45;101438.63;5035262;28;20374;-43
2023/10/03 02:26:05;;;;;;;21.45;8.48;;;;;;;15.75;86.43;101445.09;5035151;28;20025;-43
2023/10/03 02:28:31;;;;;;;16.90;7.57;;;;;;;15.72;86.72;101446.38;5035092;28;20030;-43
2023/10/03 02:31:00;;;;;;;20.10;7.93;;;;;;;15.77;86.45;101438.44;5035350;28;20435;-44
2023/10/03 02:33:28;;;;;;;19.80;7.68;;;;;;;15.73;86.97;101447.19;5035227;28;20109;-42
2023/10/03 02:35:54;;;;;;;18.73;8.30;;;;;;;15.82;86.49;101437.72;5050103;28;20112;-43
2023/10/03 02:38:29;;;;;;;12.98;7.60;;;;;;;15.64;87.87;101451.22;5034849;28;20055;-41
2023/10/03 02:41:00;;;;;;;20.57;7.97;;;;;;;15.58;88.06;101453.75;5034709;28;20030;-43
2023/10/03 02:43:31;;;;;;;16.40;7.93;;;;;;;15.71;87.79;101460.06;5034375;28;20101;-41
2023/10/03 02:45:59;;;;;;;26.92;8.13;;;;;;;15.77;87.55;101464.59;5033858;28;20034;-43
2023/10/03 02:48:25;;;;;;;19.13;7.63;;;;;;;15.71;87.82;101462.75;5034397;28;20025;-42
2023/10/03 02:50:52;;;;;;;17.13;7.50;;;;;;;15.53;89.10;101469.78;5034747;28;20022;-42
2023/10/03 02:53:20;;;;;;;23.20;7.72;;;;;;;15.63;88.74;101477.41;5034177;28;20029;-42
2023/10/03 02:55:51;;;;;;;18.88;7.43;;;;;;;15.48;89.68;101471.50;5034056;28;20053;-44
2023/10/03 02:58:19;;;;;;;14.30;7.88;;;;;;;15.41;90.10;101465.34;5034141;28;20083;-46
2023/10/03 03:00:56;;;;;;;15.75;7.07;;;;;;;15.49;89.88;101465.03;5034155;28;20041;-45
2023/10/03 03:03:29;;;;;;;18.60;7.75;;;;;;;15.41;90.53;101466.16;5034731;28;20056;-45
2023/10/03 03:05:57;;;;;;;24.38;7.60;;;;;;;15.30;91.34;101470.41;5033490;28;20081;-45
2023/10/03 03:08:25;;;;;;;18.40;7.63;;;;;;;15.34;90.59;101472.69;5034089;28;20022;-45
2023/10/03 03:10:57;;;;;;;16.33;6.97;;;;;;;15.12;91.81;101483.03;5033806;28;20021;-42
2023/10/03 03:13:24;;;;;;;13.60;6.75;;;;;;;15.22;91.43;101488.78;5033820;28;20072;-42
2023/10/03 03:16:11;;;;;;;21.55;7.80;;;;;;;15.20;91.58;101482.75;5033884;28;20036;-42
2023/10/03 03:18:42;;;;;;;16.33;7.20;;;;;;;15.31;89.79;101492.81;5049460;28;20036;-42
2023/10/03 03:21:15;;;;;;;16.65;7.10;;;;;;;15.39;89.92;101494.44;5034028;28;20026;-42
2023/10/03 03:23:43;;;;;;;15.80;7.18;;;;;;;15.22;90.31;101496.88;5034163;28;20104;-44
2023/10/03 03:29:31;;;;;;;17.58;8.60;;;;;;;14.95;92.54;101505.16;5130488;27;20376;-42
2023/10/03 03:31:57;;;;;;;19.83;8.60;;;;;;;15.03;91.87;101496.78;5130294;27;20031;-42
2023/10/03 03:34:23;;;;;;;20.58;9.13;;;;;;;15.07;91.80;101491.78;5131026;27;20490;-42
2023/10/03 03:36:54;;;;;;;21.85;8.48;;;;;;;15.10;91.03;101493.22;5130798;28;20031;-42
2023/10/03 03:39:21;;;;;;;14.25;7.15;;;;;;;15.02;92.19;101492.44;5130217;28;20106;-42
2023/10/03 03:41:48;;;;;;;21.63;8.75;;;;;;;14.90;92.51;101485.28;5130296;27;20027;-42
2023/10/03 03:44:18;;;;;;;19.20;8.55;;;;;;;14.87;92.95;101494.63;5130207;27;20352;-42
2023/10/03 03:46:45;;;;;;;16.67;7.53;;;;;;;14.88;93.39;101507.09;5130292;27;20081;-42
2023/10/03 03:49:14;;;;;;;17.25;7.90;;;;;;;14.87;93.43;101501.88;5129868;27;20035;-42
2023/10/03 03:51:40;;;;;;;19.88;7.93;;;;;;;14.86;93.99;101498.38;5130042;27;20031;-42
2023/10/03 03:54:11;;;;;;;19.63;8.35;;;;;;;14.69;93.91;101505.31;5129921;27;20024;-42
2023/10/03 03:56:40;;;;;;;21.20;7.53;;;;;;;14.81;93.87;101500.88;5130323;27;20095;-42
2023/10/03 03:59:06;;;;;;;13.45;6.88;;;;;;;14.86;93.25;101490.28;5129736;27;20042;-42
2023/10/03 04:01:34;;;;;;;16.50;6.80;;;;;;;14.83;93.76;101493.44;5129643;27;20031;-42
2023/10/03 04:04:03;;;;;;;24.45;7.55;;;;;;;14.81;93.31;101495.50;5129535;27;20012;-41
2023/10/03 04:06:29;;;;;;;18.45;7.72;;;;;;;14.62;93.98;101497.28;5129593;27;20024;-42
2023/10/03 04:08:55;;;;;;;20.17;7.97;;;;;;;14.61;94.14;101498.34;5129766;27;20426;-42
2023/10/03 04:11:22;;;;;;;17.85;8.10;;;;;;;14.49;94.65;101497.34;5129459;27;20020;-42
2023/10/03 04:13:55;;;;;;;15.75;7.75;;;;;;;14.53;94.78;101496.72;5130169;27;20441;-42
2023/10/03 04:16:21;;;;;;;16.90;8.10;;;;;;;14.51;94.25;101493.41;5129796;27;20035;-43
2023/10/03 04:18:51;;;;;;;19.38;7.97;;;;;;;14.65;94.15;101501.41;5129318;27;20035;-42
2023/10/03 04:21:19;;;;;;;17.25;8.43;;;;;;;14.58;94.47;101503.31;5128773;27;20080;-42
2023/10/03 04:23:47;;;;;;;19.30;8.23;;;;;;;14.54;95.32;101508.31;5128969;27;20023;-42
2023/10/03 04:26:14;;;;;;;19.17;7.80;;;;;;;14.59;94.98;101505.78;5128889;27;20038;-41
2023/10/03 04:28:40;;;;;;;20.48;8.88;;;;;;;14.52;95.18;101503.16;5129330;27;20073;-42
2023/10/03 04:31:07;;;;;;;22.25;9.43;;;;;;;14.44;94.96;101500.69;5129194;27;20023;-42
2023/10/03 04:33:34;;;;;;;15.90;8.27;;;;;;;14.52;94.59;101494.25;5129241;27;20383;-42
2023/10/03 04:36:04;;;;;;;21.55;8.55;;;;;;;14.56;94.98;101502.72;5127517;28;20083;-41
2023/10/03 04:38:33;;;;;;;15.00;8.10;;;;;;;14.49;94.78;101503.59;5128343;27;20027;-44
2023/10/03 04:40:59;;;;;;;21.25;8.13;;;;;;;14.35;95.40;101510.03;5115176;28;20020;-42
2023/10/03 04:43:29;;;;;;;13.30;7.50;;;;;;;14.38;95.25;101498.00;5115372;28;20023;-45
2023/10/03 04:45:56;;;;;;;23.80;8.82;;;;;;;14.47;94.78;101497.56;5115777;28;20038;-43
2023/10/03 04:48:24;;;;;;;20.90;8.23;;;;;;;14.44;94.76;101489.91;5115466;28;20502;-45
2023/10/03 04:50:50;;;;;;;19.38;7.60;;;;;;;14.52;94.86;101500.44;5115107;28;20443;-44
2023/10/03 04:53:17;;;;;;;21.58;8.38;;;;;;;14.35;95.54;101491.19;5114619;28;20161;-42
2023/10/03 04:55:49;;;;;;;22.58;9.32;;;;;;;14.35;96.37;101493.06;5115239;28;20031;-43
2023/10/03 04:58:16;;;;;;;20.85;8.85;;;;;;;14.31;95.87;101495.34;5115432;28;20791;-43
2023/10/03 05:00:45;;;;;;;22.30;8.35;;;;;;;14.23;96.12;101488.34;5114600;28;20072;-43
2023/10/03 05:03:13;;;;;;;23.80;8.32;;;;;;;14.29;96.95;101485.84;5115946;28;20118;-45
2023/10/03 05:05:39;;;;;;;16.88;8.27;;;;;;;14.36;96.50;101495.53;5114872;28;20029;-43
2023/10/03 05:08:05;;;;;;;17.85;7.45;;;;;;;14.42;95.94;101494.66;5115245;28;20032;-43
2023/10/03 05:10:35;;;;;;;18.85;7.97;;;;;;;14.24;96.62;101494.56;5115120;28;20085;-42
2023/10/03 05:13:02;;;;;;;13.68;7.05;;;;;;;14.17;97.67;101491.09;5115251;27;20090;-41
2023/10/03 05:15:28;;;;;;;16.70;6.50;;;;;;;14.25;96.73;101490.81;5114450;28;20487;-41
2023/10/03 05:17:55;;;;;;;18.65;8.68;;;;;;;14.17;97.71;101494.59;5108584;28;20043;-40
2023/10/03 05:20:21;;;;;;;16.10;7.10;;;;;;;14.16;97.39;101500.19;5098835;28;20436;-40
2023/10/03 05:22:48;;;;;;;13.57;6.70;;;;;;;14.13;97.58;101495.22;5094688;28;20373;-40
2023/10/03 05:25:18;;;;;;;14.90;7.88;;;;;;;14.10;97.50;101495.66;5093928;28;20067;-40
2023/10/03 05:27:51;;;;;;;12.82;8.38;;;;;;;13.94;98.69;101499.66;5093662;28;20040;-40
2023/10/03 05:30:17;;;;;;;12.20;7.32;;;;;;;14.05;98.18;101501.69;5093600;28;20024;-41
2023/10/03 05:32:43;;;;;;;15.85;7.93;;;;;;;13.97;98.28;101497.34;5093585;28;20023;-40
2023/10/03 05:35:12;;;;;;;17.75;7.78;;;;;;;13.97;98.21;101500.03;5096506;28;20024;-41
2023/10/03 05:37:42;;;;;;;15.95;7.65;;;;;;;14.04;98.00;101493.81;5113775;27;20027;-41
2023/10/03 05:40:12;;;;;;;15.75;7.38;;;;;;;13.98;98.14;101492.78;5113410;27;20076;-42
2023/10/03 05:42:47;;;;;;;16.65;7.70;;;;;;;13.86;99.19;101502.56;5113753;28;20035;-41
2023/10/03 05:45:14;;;;;;;14.57;7.47;;;;;;;14.03;98.55;101498.38;5114150;28;20019;-41
2023/10/03 05:47:42;;;;;;;13.02;7.47;;;;;;;14.10;97.92;101492.94;5113687;28;20028;-40
2023/10/03 05:50:12;;;;;;;18.10;8.23;;;;;;;13.92;99.45;101489.09;5113370;28;20069;-40
2023/10/03 05:52:39;;;;;;;13.88;7.55;;;;;;;13.90;99.59;101487.66;5112805;28;20050;-40
2023/10/03 05:55:07;;;;;;;12.07;7.40;;;;;;;13.82;99.74;101496.78;5113149;28;20031;-40
2023/10/03 05:57:33;;;;;;;15.77;6.97;;;;;;;13.73;100.00;101495.38;5113559;28;20066;-46
2023/10/03 06:00:00;;;;;;;15.82;7.72;;;;;;;13.73;99.93;101498.06;5113453;28;20016;-45
2023/10/03 06:02:26;;;;;;;15.65;7.43;;;;;;;13.67;100.00;101493.53;5112871;28;20051;-45
2023/10/03 06:04:54;;;;;;;13.20;6.88;;;;;;;13.67;100.00;101501.59;5113513;28;20029;-46
2023/10/03 06:07:20;;;;;;;16.10;7.28;;;;;;;13.71;100.00;101498.28;5113284;28;20423;-45
2023/10/03 06:09:46;;;;;;;12.32;7.15;;;;;;;13.73;100.00;101495.38;5113007;28;20066;-46
2023/10/03 06:12:12;;;;;;;15.88;7.50;;;;;;;13.81;100.00;101491.59;5105363;28;20104;-46
2023/10/03 06:14:40;;;;;;;17.27;7.57;;;;;;;13.74;100.00;101497.84;5110911;28;20038;-46
2023/10/03 06:17:12;;;;;;;13.25;7.32;;;;;;;13.68;100.00;101509.44;5113252;28;20035;-46
2023/10/03 06:19:39;;;;;;;14.73;7.72;;;;;;;13.69;100.00;101502.19;5113489;28;20019;-45
2023/10/03 06:22:05;;;;;;;16.40;7.38;;;;;;;13.83;99.24;101506.53;5112818;28;20031;-46
2023/10/03 06:24:31;;;;;;;16.90;7.78;;;;;;;13.83;99.67;101503.00;5113140;28;20022;-47
2023/10/03 06:26:58;;;;;;;15.43;7.60;;;;;;;13.83;98.97;101503.81;5113465;28;20415;-47
2023/10/03 06:29:24;;;;;;;13.52;7.15;;;;;;;13.71;99.61;101505.50;5113004;28;20106;-46
2023/10/03 06:31:51;;;;;;;9.50;6.10;;;;;;;13.92;98.73;101510.63;5110853;28;20023;-43
2023/10/03 06:34:18;;;;;;;12.45;6.60;;;;;;;13.90;97.88;101504.63;5112761;28;20032;-42
2023/10/03 06:36:44;;;;;;;11.63;6.25;;;;;;;13.95;97.67;101518.28;5112377;28;20475;-42
2023/10/03 06:39:12;;;;;;;12.93;6.15;;;;;;;13.92;97.34;101515.16;5112781;28;20023;-46
2023/10/03 06:41:38;;;;;;;13.77;6.50;;;;;;;13.87;97.67;101506.91;5112777;28;20072;-43
2023/10/03 06:44:05;;;;;;;8.73;5.72;;;;;;;13.92;97.33;101509.78;5091163;28;20024;-42
2023/10/03 06:46:32;;;;;;;9.43;5.43;;;;;;;13.95;96.99;101509.38;5092037;28;20109;-43
2023/10/03 06:48:58;;;;;;;15.00;6.40;;;;;;;13.91;97.40;101514.34;5091890;28;20032;-43
2023/10/03 06:51:24;;;;;;;13.88;6.53;;;;;;;13.77;98.13;101501.97;5092224;28;20020;-42
2023/10/03 06:53:52;;;;;;;11.45;6.88;;;;;;;13.77;98.30;101504.69;5092219;28;20157;-44
2023/10/03 06:56:19;;;;;;;10.23;6.22;;;;;;;13.85;97.73;101509.00;5092126;28;20177;-42
2023/10/03 06:58:48;;;;;;;11.95;6.10;;;;;;;13.74;98.07;101502.41;5109209;28;20031;-43
2023/10/03 07:01:16;;;;;;;14.35;6.57;;;;;;;13.87;97.09;101509.59;5105313;28;20031;-41
2023/10/03 07:03:42;;;;;;;12.20;6.72;;;;;;;13.81;96.51;101516.66;5092035;28;20035;-41
2023/10/03 07:06:09;;;;;;;10.10;6.07;;;;;;;13.83;96.66;101511.91;5092175;28;20032;-42
2023/10/03 07:08:35;;;;;;;15.68;6.30;;;;;;;13.78;96.78;101500.13;5091754;28;20358;-42
2023/10/03 07:11:02;;;;;;;11.65;6.47;;;;;;;13.82;96.74;101520.16;5091860;28;20024;-43
2023/10/03 07:13:29;;;;;;;11.02;6.43;;;;;;;13.73;96.92;101519.56;5106034;28;20055;-44
2023/10/03 07:15:58;;;;;;;11.05;6.75;;;;;;;13.65;97.53;101515.22;5112426;28;20049;-44
2023/10/03 07:18:25;;;;;;;15.20;6.55;;;;;;;13.72;97.05;101526.00;5112691;28;20095;-43
2023/10/03 07:20:51;;;;;;;10.43;5.93;;;;;;;13.74;96.92;101521.22;5111940;28;20015;-43
2023/10/03 07:23:19;;;;;;;13.02;6.50;;;;;;;13.63;97.29;101529.94;5111762;28;20020;-43
2023/10/03 07:25:46;;;;;;;11.82;6.28;;;;;;;13.70;96.79;101530.75;5111939;28;20027;-43
2023/10/03 07:28:13;;;;;;;12.30;6.38;;;;;;;13.72;97.09;101529.50;5096336;28;20048;-43
2023/10/03 07:30:41;;;;;;;15.07;6.43;;;;;;;13.83;96.47;101516.47;5091156;28;20518;-44
2023/10/03 07:33:08;;;;;;;11.05;6.10;;;;;;;13.75;96.64;101528.25;5091681;28;20107;-44
2023/10/03 07:35:37;;;;;;;11.88;6.50;;;;;;;13.89;95.98;101519.13;5091504;28;20027;-42
2023/10/03 07:38:04;;;;;;;12.13;6.53;;;;;;;13.74;96.72;101515.84;5091755;28;20032;-42
2023/10/03 07:40:30;;;;;;;12.57;6.28;;;;;;;13.87;96.06;101515.81;5091560;28;20024;-43
2023/10/03 07:42:57;;;;;;;12.82;6.22;;;;;;;13.84;95.85;101516.25;5096693;28;20019;-43
2023/10/03 07:45:23;;;;;;;14.52;7.22;;;;;;;13.79;95.83;101513.34;5110940;28;20439;-42
2023/10/03 07:47:50;;;;;;;17.67;6.10;;;;;;;13.88;95.86;101513.94;5091428;28;20036;-41
2023/10/03 07:50:18;;;;;;;12.57;7.07;;;;;;;13.76;96.21;101508.38;5091580;28;20040;-41
2023/10/03 07:52:48;;;;;;;14.23;6.43;;;;;;;13.86;96.09;101514.16;5091429;28;20031;-41
2023/10/03 07:55:15;;;;;;;11.75;6.30;;;;;;;13.80;96.11;101500.72;5091335;28;20025;-41
2023/10/03 07:57:42;;;;;;;10.82;6.03;;;;;;;13.82;96.36;101506.72;5091287;28;20458;-41
2023/10/03 08:00:15;;;;;;;13.23;6.72;;;;;;;13.69;96.09;101502.19;5091399;28;20024;-42
2023/10/03 08:02:43;;;;;;;15.05;6.55;;;;;;;13.68;96.66;101503.25;5091295;28;20020;-43
2023/10/03 08:05:11;;;;;;;11.82;6.82;;;;;;;13.54;97.83;101502.41;5094271;28;20028;-42
2023/10/03 08:07:38;;;;;;;9.40;6.00;;;;;;;13.60;97.78;101498.91;5111580;28;20031;-42
2023/10/03 08:10:08;;;;;;;12.75;7.10;;;;;;;13.42;98.42;101491.47;5111405;28;20379;-42
2023/10/03 08:12:38;;;;;;;20.30;7.53;;;;;;;13.53;98.53;101481.13;5101469;28;20485;-42
2023/10/03 08:15:16;;;;;;;15.95;7.28;;;;;;;13.48;98.18;101479.88;5093131;28;20077;-42
2023/10/03 08:17:44;;;;;;;13.93;6.68;;;;;;;13.48;98.14;101482.56;5095222;28;20032;-42
2023/10/03 08:20:14;;;;;;;12.00;7.80;;;;;;;13.46;98.02;101475.75;5100564;28;20405;-42
2023/10/03 08:22:50;;;;;;;9.50;6.57;;;;;;;13.52;97.46;101471.41;5115257;28;20023;-42
2023/10/03 08:25:27;;;;;;;16.10;7.13;;;;;;;13.57;97.61;101472.44;5115141;28;20027;-43
2023/10/03 08:27:55;;;;;;;9.90;6.10;;;;;;;13.55;97.77;101468.28;5113823;28;20431;-42
2023/10/03 08:30:28;;;;;;;9.93;6.53;;;;;;;13.60;97.54;101474.72;5104633;28;20035;-42
2023/10/03 08:33:01;;;;;;;14.38;6.75;;;;;;;13.52;97.91;101472.22;5094510;28;20792;-42
2023/10/03 08:35:39;;;;;;;14.32;6.90;;;;;;;13.59;97.43;101469.53;5094504;28;20506;-44
2023/10/03 08:38:07;;;;;;;12.48;6.97;;;;;;;13.55;97.26;101474.50;5094777;28;20533;-42
2023/10/03 08:40:38;;;;;;;13.13;6.80;;;;;;;13.61;97.31;101478.22;5094811;28;20389;-45
2023/10/03 08:43:13;;;;;;;13.05;7.70;;;;;;;13.56;97.60;101491.47;5094118;28;20091;-42
2023/10/03 08:45:52;;;;;;;10.88;6.25;;;;;;;13.50;97.87;101482.38;5094483;28;20115;-42
2023/10/03 08:48:27;;;;;;;12.02;6.97;;;;;;;13.63;96.73;101487.72;5094568;28;20043;-44
2023/10/03 08:50:58;;;;;;;9.38;6.63;;;;;;;13.51;97.09;101494.78;5106232;28;20039;-42
2023/10/03 08:53:28;;;;;;;12.05;6.85;;;;;;;13.65;96.43;101484.81;5114795;28;20032;-42
2023/10/03 08:56:05;;;;;;;10.48;6.45;;;;;;;13.65;96.33;101490.19;5114315;28;20114;-42
2023/10/03 08:58:32;;;;;;;14.60;7.40;;;;;;;13.57;95.89;101490.44;5114811;28;20035;-42
2023/10/03 09:01:07;;;;;;;18.70;7.85;;;;;;;13.60;95.66;101492.69;5107756;28;20028;-42
2023/10/03 09:03:47;;;;;;;13.77;7.78;;;;;;;13.45;97.11;101484.88;5093405;28;20028;-43
2023/10/03 09:06:23;;;;;;;11.35;7.13;;;;;;;13.48;96.96;101482.56;5094037;28;20078;-42
2023/10/03 09:08:52;;;;;;;11.95;6.50;;;;;;;13.58;96.87;101484.00;5093617;28;20115;-42
2023/10/03 09:11:20;;;;;;;12.48;7.45;;;;;;;13.54;96.53;101493.53;5093892;28;20059;-42
2023/10/03 09:13:49;;;;;;;17.80;8.00;;;;;;;13.65;95.88;101493.72;5094072;28;20024;-42
2023/10/03 09:16:16;;;;;;;11.75;6.93;;;;;;;13.54;96.83;101483.59;5093984;28;20028;-42
2023/10/03 09:18:42;;;;;;;11.93;6.70;;;;;;;13.55;96.12;101492.47;5092594;28;20020;-43
2023/10/03 09:21:23;;;;;;;11.82;6.47;;;;;;;13.58;96.10;101492.91;5093437;28;20381;-43
2023/10/03 09:24:17;;;;;;;11.55;7.75;;;;;;;13.56;96.29;101496.84;5093610;28;20024;-42
2023/10/03 09:26:45;;;;;;;12.60;7.13;;;;;;;13.59;96.10;101493.72;5093892;28;20031;-42
2023/10/03 09:29:18;;;;;;;14.63;7.38;;;;;;;13.58;96.63;101489.38;5093412;28;20044;-42
2023/10/03 09:31:46;;;;;;;13.27;7.65;;;;;;;13.63;95.74;101485.03;5093447;28;20024;-42
2023/10/03 09:34:14;;;;;;;12.65;7.20;;;;;;;13.63;95.32;101492.28;5093743;28;20091;-42
2023/10/03 09:36:40;;;;;;;10.15;6.47;;;;;;;13.58;95.52;101494.78;5093299;28;20102;-42
2023/10/03 09:39:08;;;;;;;11.38;7.28;;;;;;;13.64;94.79;101485.84;5093656;28;20028;-42
2023/10/03 09:41:38;;;;;;;17.98;7.35;;;;;;;13.69;94.71;101484.19;5107165;28;20476;-43
2023/10/03 09:44:07;;;;;;;15.10;7.60;;;;;;;13.62;95.01;101482.56;5114058;28;20123;-43
2023/10/03 09:46:40;;;;;;;11.98;7.07;;;;;;;13.54;95.83;101478.22;5114128;28;20015;-42
2023/10/03 09:49:10;;;;;;;16.15;7.20;;;;;;;13.54;95.05;101472.00;5113682;28;20030;-42
2023/10/03 09:51:46;;;;;;;12.48;7.28;;;;;;;13.48;95.46;101477.19;5101651;28;20106;-44
2023/10/03 09:54:35;;;;;;;10.50;6.57;;;;;;;13.42;95.99;101483.41;5093150;28;20149;-43
2023/10/03 09:57:15;;;;;;;13.20;6.57;;;;;;;13.63;95.86;101476.13;5092960;28;20024;-41
2023/10/03 09:59:49;;;;;;;13.98;6.55;;;;;;;13.61;95.56;101465.59;5092710;28;20032;-41
2023/10/03 10:02:36;;;;;;;12.95;7.20;;;;;;;13.56;95.70;101472.66;5094162;28;20028;-43
2023/10/03 10:05:07;;;;;;;12.68;7.20;;;;;;;13.41;95.89;101467.50;5092989;28;20525;-42
2023/10/03 10:08:06;;;;;;;10.98;6.18;;;;;;;13.50;96.25;101463.56;5100153;28;20108;-42
2023/10/03 10:10:34;;;;;;;11.00;6.53;;;;;;;13.43;96.42;101460.84;5106089;28;20023;-42
2023/10/03 10:13:21;;;;;;;13.48;6.22;;;;;;;13.44;96.17;101464.41;5092359;28;20024;-41
2023/10/03 10:16:07;;;;;;;12.63;6.97;;;;;;;13.46;96.61;101454.25;5092843;28;20023;-42
2023/10/03 10:18:45;;;;;;;13.50;7.20;;;;;;;13.38;96.94;101460.69;5091635;28;20028;-41
2023/10/03 10:21:25;;;;;;;11.48;5.75;;;;;;;13.42;97.05;101453.81;5091882;28;20507;-43
2023/10/03 10:24:16;;;;;;;9.10;5.90;;;;;;;13.37;97.29;101450.13;5094215;28;20028;-42
2023/10/03 10:26:48;;;;;;;11.38;6.20;;;;;;;13.47;96.53;101454.03;5092545;28;20380;-41
2023/10/03 10:29:20;;;;;;;12.13;6.45;;;;;;;13.39;97.00;101445.38;5092590;28;20446;-42
2023/10/03 10:32:06;;;;;;;12.07;6.18;;;;;;;13.42;96.97;101445.75;5089052;28;20385;-42
2023/10/03 10:34:35;;;;;;;7.60;5.03;;;;;;;13.40;97.47;101441.63;5092164;28;20028;-41
2023/10/03 10:37:15;;;;;;;10.85;5.97;;;;;;;13.51;97.61;101437.47;5091551;28;20028;-41
2023/10/03 10:39:57;;;;;;;10.45;6.35;;;;;;;13.56;97.45;101421.53;5092227;28;20020;-41
2023/10/03 10:42:29;;;;;;;14.20;6.95;;;;;;;13.41;98.19;101425.28;5091522;28;20039;-43
2023/10/03 10:45:04;;;;;;;15.73;6.53;;;;;;;13.48;98.40;101428.78;5092263;28;20089;-41
2023/10/03 10:47:48;;;;;;;15.60;7.07;;;;;;;13.51;97.44;101426.72;5091951;28;20066;-41
2023/10/03 10:50:17;;;;;;;8.65;6.38;;;;;;;13.61;96.80;101425.25;5091578;28;20609;-43
2023/10/03 10:52:55;;;;;;;15.35;6.80;;;;;;;13.58;97.03;101430.22;5090614;28;20484;-43
2023/10/03 10:55:26;;;;;;;13.13;7.10;;;;;;;13.56;97.03;101435.81;5092185;28;20036;-41
2023/10/03 10:58:12;;;;;;;11.98;6.30;;;;;;;13.56;96.70;101435.00;5091742;28;20016;-43
2023/10/03 11:00:40;;;;;;;11.05;6.30;;;;;;;13.70;96.87;101433.91;5091912;28;20028;-42
2023/10/03 11:03:07;;;;;;;11.05;7.03;;;;;;;13.53;97.42;101443.47;5097598;28;20474;-41
2023/10/03 11:05:47;;;;;;;12.43;7.10;;;;;;;13.56;97.46;101435.00;5112341;28;20532;-42
2023/10/03 11:08:14;;;;;;;9.93;7.20;;;;;;;13.56;97.29;101425.06;5112294;28;20451;-41
2023/10/03 11:10:51;;;;;;;13.05;7.30;;;;;;;13.50;97.75;101433.16;5097444;28;20488;-41
2023/10/03 11:13:18;;;;;;;13.18;7.40;;;;;;;13.72;96.67;101439.91;5092145;28;20043;-43
2023/10/03 11:15:52;;;;;;;11.10;6.30;;;;;;;13.52;97.02;101428.38;5092075;28;20027;-42
2023/10/03 11:18:28;;;;;;;8.85;5.22;;;;;;;13.56;97.76;101422.38;5091642;28;20048;-42
2023/10/03 11:20:57;;;;;;;12.15;5.85;;;;;;;13.54;97.68;101420.91;5091396;28;20085;-41
2023/10/03 11:23:23;;;;;;;9.07;5.85;;;;;;;13.52;97.25;101420.31;5092212;28;20082;-41
2023/10/03 11:26:08;;;;;;;10.68;5.70;;;;;;;13.55;97.67;101414.47;5108787;28;20030;-43
2023/10/03 11:28:48;;;;;;;11.07;6.32;;;;;;;13.61;97.65;101419.88;5111965;28;20047;-41
2023/10/03 11:31:14;;;;;;;10.15;5.45;;;;;;;13.62;97.58;101415.31;5111494;28;20027;-41
2023/10/03 11:33:45;;;;;;;12.35;6.75;;;;;;;13.50;98.30;101425.09;5110722;28;20024;-43
2023/10/03 11:36:13;;;;;;;11.80;6.32;;;;;;;13.48;98.37;101430.66;5112158;28;20564;-42
2023/10/03 11:38:50;;;;;;;11.18;6.05;;;;;;;13.57;98.10;101439.31;5111980;28;20031;-42